Terminal Aerodrome Forecast
Issued by NWS Missoula, MT

Home | Current Version | Previous Version | Text Only | Print | Product List | Glossary On
Versions: 1 2 3 4 5 6 7 8 9 10 11 12 13 14 15 16 17 18 19 20 21 22 23 24 25 26 27 28
000
FTUS45 KMSO 170520
TAFGPI
TAF
KGPI 170520Z 1706/1806 01003KT P6SM BKN060
     FM171000 02015G25KT P6SM VCSH OVC050
     FM171800 02012KT 2SM -SN BR OVC020
      TEMPO 1720/1723 1/2SM SN FG OVC015=

USA.gov is the U.S. government's official web portal to all federal, state and local government web resources and services.